Time;durP1;ratioP1;P1;durP2;ratioP2;P2;SDS_P1;SDS_P2;PMS_P1;PMS_P2;Temp;Humidity;BMP_temperature;BMP_pressure;BME280_temperature;BME280_humidity;BME280_pressure;Samples;Min_cycle;Max_cycle;Signal;HPM_P1;HPM_P2
2022/06/22 00:04:20;;;;;;;0.00;0.00;;;;;;;8.65;100.00;101379.66;10369131;28;20512;-77
2022/06/22 00:09:27;;;;;;;0.00;0.00;;;;;;;8.60;100.00;101372.06;10399717;28;20029;-77
2022/06/22 00:14:46;;;;;;;0.00;0.00;;;;;;;8.48;100.00;101367.81;10378110;28;20627;-77
2022/06/22 00:19:48;;;;;;;0.00;0.00;;;;;;;8.41;100.00;101383.44;10394130;28;20510;-77
2022/06/22 00:25:01;;;;;;;0.00;0.00;;;;;;;8.26;100.00;101393.53;10409130;28;20029;-76
2022/06/22 00:30:14;;;;;;;0.00;0.00;;;;;;;8.32;100.00;101395.66;10408397;28;20028;-77
2022/06/22 00:35:44;;;;;;;0.00;0.00;;;;;;;8.39;100.00;101403.97;10408834;28;20048;-76
2022/06/22 00:40:50;;;;;;;0.00;0.00;;;;;;;8.42;100.00;101389.59;10440784;28;20045;-77
2022/06/22 00:45:50;;;;;;;0.00;0.00;;;;;;;8.53;100.00;101400.13;10403667;28;20041;-77
2022/06/22 00:51:02;;;;;;;0.00;0.00;;;;;;;8.61;100.00;101397.66;10383695;28;20038;-76
2022/06/22 00:56:25;;;;;;;0.00;0.00;;;;;;;8.63;100.00;101405.50;10376774;28;20364;-77
2022/06/22 01:01:52;;;;;;;0.00;0.00;;;;;;;8.67;100.00;101401.59;10366475;28;20425;-76
2022/06/22 01:06:59;;;;;;;0.00;0.00;;;;;;;8.63;100.00;101384.25;10369583;28;20030;-77
2022/06/22 01:12:16;;;;;;;0.00;0.00;;;;;;;8.44;100.00;101385.00;10381071;28;20083;-76
2022/06/22 01:17:28;;;;;;;0.00;0.00;;;;;;;8.33;100.00;101383.22;10394562;28;20116;-77
2022/06/22 01:22:56;;;;;;;0.00;0.00;;;;;;;8.03;100.00;101395.47;10368496;28;20034;-77
2022/06/22 01:27:57;;;;;;;0.00;0.00;;;;;;;7.85;100.00;101397.84;10364400;28;20099;-78
2022/06/22 01:32:58;;;;;;;0.00;0.00;;;;;;;7.83;100.00;101401.59;10381284;28;20018;-77
2022/06/22 01:37:58;;;;;;;0.00;0.00;;;;;;;7.89;100.00;101406.38;10406356;28;20025;-77
2022/06/22 01:43:20;;;;;;;0.10;0.10;;;;;;;7.64;100.00;101404.91;10366112;28;20033;-77
2022/06/22 01:49:03;;;;;;;0.00;0.00;;;;;;;7.47;100.00;101396.50;10368473;28;20051;-76
2022/06/22 01:54:21;;;;;;;0.00;0.00;;;;;;;7.29;100.00;101392.72;10366031;28;20409;-76
2022/06/22 01:59:55;;;;;;;0.00;0.00;;;;;;;7.16;100.00;101390.22;10405847;28;20048;-77
2022/06/22 02:05:04;;;;;;;0.00;0.00;;;;;;;7.05;100.00;101384.94;10391512;28;20057;-76
2022/06/22 02:10:29;;;;;;;0.00;0.00;;;;;;;7.01;100.00;101381.69;10395482;28;20094;-76
2022/06/22 02:15:38;;;;;;;0.00;0.00;;;;;;;7.07;100.00;101380.38;10404940;28;20421;-76
2022/06/22 02:20:40;;;;;;;0.00;0.00;;;;;;;7.07;100.00;101376.84;10380713;28;20037;-77
2022/06/22 02:26:07;;;;;;;0.00;0.00;;;;;;;7.09;100.00;101367.00;10362273;28;20457;-77
2022/06/22 02:31:08;;;;;;;0.00;0.00;;;;;;;6.86;100.00;101366.16;10403754;28;20121;-77
2022/06/22 02:36:11;;;;;;;0.00;0.00;;;;;;;6.59;100.00;101372.69;10404543;28;20489;-77
2022/06/22 02:46:37;;;;;;;0.00;0.00;;;;;;;6.50;100.00;101357.53;10392497;28;20485;-77
2022/06/22 02:51:43;;;;;;;0.00;0.00;;;;;;;6.44;100.00;101355.34;10375391;28;20110;-77
2022/06/22 02:56:44;;;;;;;0.00;0.00;;;;;;;6.24;100.00;101363.03;10375427;28;20042;-77
2022/06/22 03:01:45;;;;;;;0.00;0.00;;;;;;;6.04;100.00;101356.59;10378056;28;20445;-77
2022/06/22 03:06:49;;;;;;;0.00;0.00;;;;;;;5.91;100.00;101339.97;10376763;28;20029;-76
2022/06/22 03:11:52;;;;;;;0.00;0.00;;;;;;;6.05;100.00;101353.03;10409508;28;20654;-77
2022/06/22 03:17:14;;;;;;;0.00;0.00;;;;;;;6.32;100.00;101352.69;10417617;28;20040;-77
2022/06/22 03:22:18;;;;;;;0.00;0.00;;;;;;;6.63;100.00;101349.44;10395731;28;20042;-77
2022/06/22 03:27:23;;;;;;;0.00;0.00;;;;;;;6.99;100.00;101356.31;10380938;28;20049;-75
2022/06/22 03:32:36;;;;;;;0.00;0.00;;;;;;;7.76;100.00;101377.38;10376186;28;20037;-75
2022/06/22 03:37:51;;;;;;;0.00;0.00;;;;;;;9.31;100.00;101377.34;10377696;28;20037;-76
2022/06/22 03:42:58;;;;;;;0.00;0.00;;;;;;;10.80;100.00;101385.72;10378688;28;20033;-76
2022/06/22 03:48:14;;;;;;;0.00;0.00;;;;;;;12.29;100.00;101383.53;10382488;28;20033;-76
2022/06/22 03:53:22;;;;;;;0.00;0.00;;;;;;;13.27;100.00;101397.41;10419003;28;20084;-76
2022/06/22 03:58:24;;;;;;;0.10;0.10;;;;;;;14.20;100.00;101389.94;10419052;28;20053;-76
2022/06/22 04:03:25;;;;;;;0.10;0.10;;;;;;;15.09;100.00;101389.88;10415278;28;20042;-76
2022/06/22 04:08:33;;;;;;;0.10;0.10;;;;;;;16.04;98.51;101385.09;10411018;28;20120;-76
2022/06/22 04:13:49;;;;;;;0.10;0.10;;;;;;;17.21;95.04;101389.88;10411926;28;20412;-76
2022/06/22 04:18:55;;;;;;;0.10;0.10;;;;;;;18.15;88.65;101392.50;10417514;28;20067;-74
2022/06/22 04:24:01;;;;;;;0.10;0.10;;;;;;;18.80;85.75;101400.41;10452240;28;20128;-74
2022/06/22 04:29:11;;;;;;;0.10;0.10;;;;;;;19.48;85.12;101405.88;10453368;28;20036;-74
2022/06/22 04:34:26;;;;;;;0.00;0.00;;;;;;;20.33;84.55;101410.56;10451777;28;20033;-74
2022/06/22 04:39:36;;;;;;;0.10;0.10;;;;;;;21.56;83.11;101409.78;10452759;28;20056;-74
2022/06/22 04:44:44;;;;;;;0.00;0.00;;;;;;;22.85;77.87;101407.44;10451389;28;20033;-74
2022/06/22 04:49:52;;;;;;;0.00;0.00;;;;;;;23.60;75.69;101417.16;10428348;28;20094;-75
2022/06/22 04:54:56;;;;;;;0.00;0.00;;;;;;;24.28;71.92;101421.34;10410195;28;20381;-75
2022/06/22 04:59:58;;;;;;;0.10;0.10;;;;;;;24.68;68.13;101426.94;10410732;28;20036;-75
2022/06/22 05:05:14;;;;;;;0.00;0.00;;;;;;;25.08;66.29;101423.44;10409733;28;20052;-75
2022/06/22 05:10:28;;;;;;;0.00;0.00;;;;;;;25.56;64.52;101429.56;10409132;28;20422;-75
2022/06/22 05:15:33;;;;;;;0.10;0.10;;;;;;;26.04;63.51;101426.34;10408974;28;20564;-75
2022/06/22 05:20:45;;;;;;;0.10;0.10;;;;;;;26.54;61.55;101432.88;10409197;28;20162;-75
2022/06/22 05:25:48;;;;;;;0.00;0.00;;;;;;;26.93;60.20;101433.69;10423898;22;20053;-73
2022/06/22 05:30:57;;;;;;;0.10;0.10;;;;;;;27.10;56.85;101428.16;10414369;28;20052;-74
2022/06/22 05:36:06;;;;;;;0.10;0.10;;;;;;;27.22;53.20;101419.84;10413416;28;20033;-74
2022/06/22 05:41:09;;;;;;;0.10;0.10;;;;;;;26.70;55.63;101412.06;10413358;28;20048;-74
2022/06/22 05:46:11;;;;;;;0.00;0.00;;;;;;;26.82;56.24;101402.69;10412700;28;20455;-73
2022/06/22 05:51:25;;;;;;;0.10;0.10;;;;;;;27.40;54.34;101389.44;10414043;28;20412;-74
2022/06/22 05:56:29;;;;;;;0.10;0.10;;;;;;;27.24;51.69;101382.13;10414697;28;20064;-74
2022/06/22 06:01:36;;;;;;;0.10;0.10;;;;;;;26.45;54.42;101375.09;10416962;28;20036;-74
2022/06/22 06:06:41;;;;;;;0.10;0.10;;;;;;;26.26;54.01;101362.78;10415417;28;20029;-74
2022/06/22 06:11:49;;;;;;;0.10;0.10;;;;;;;26.56;53.95;101368.72;10416331;28;20040;-74
2022/06/22 06:16:52;;;;;;;0.10;0.10;;;;;;;26.18;51.97;101364.88;10413471;28;20029;-74
2022/06/22 06:21:58;;;;;;;0.00;0.00;;;;;;;26.21;54.27;101371.75;10415650;28;20036;-74
2022/06/22 06:32:50;;;;;;;0.10;0.10;;;;;;;25.72;53.93;101396.84;10415739;28;20033;-74
2022/06/22 06:38:08;;;;;;;0.10;0.10;;;;;;;24.79;58.37;101404.28;10415692;28;20408;-73
2022/06/22 06:43:30;;;;;;;0.10;0.10;;;;;;;23.59;63.16;101385.59;10416472;28;20559;-73
2022/06/22 06:48:32;;;;;;;0.08;0.08;;;;;;;24.72;60.09;101384.50;10410974;28;20816;-73
2022/06/22 06:53:45;;;;;;;0.10;0.10;;;;;;;23.81;60.83;101388.63;10432437;28;20025;-73
2022/06/22 06:58:55;;;;;;;0.10;0.10;;;;;;;24.79;59.93;101396.13;10416413;28;20492;-73
2022/06/22 07:04:02;;;;;;;0.10;0.10;;;;;;;24.82;57.98;101397.53;10413620;28;20075;-73
2022/06/22 07:09:17;;;;;;;0.10;0.10;;;;;;;25.45;58.01;101410.28;10415078;28;20069;-73
2022/06/22 07:14:24;;;;;;;0.10;0.10;;;;;;;25.91;54.24;101410.28;10415343;28;20480;-73
2022/06/22 07:19:30;;;;;;;0.10;0.10;;;;;;;26.02;55.36;101409.38;10406752;28;20034;-73
2022/06/22 07:24:48;;;;;;;0.10;0.10;;;;;;;26.26;52.61;101414.66;10412656;28;20025;-74
2022/06/22 07:29:59;;;;;;;0.10;0.10;;;;;;;26.76;54.34;101417.34;10412582;28;20499;-74
2022/06/22 07:35:08;;;;;;;0.10;0.10;;;;;;;27.09;51.30;101418.31;10412278;28;20083;-73
2022/06/22 07:40:17;;;;;;;0.10;0.10;;;;;;;26.77;53.86;101415.44;10421338;28;20109;-73
2022/06/22 07:45:21;;;;;;;0.10;0.10;;;;;;;27.30;52.87;101414.75;10421595;28;20465;-74
2022/06/22 07:50:29;;;;;;;0.10;0.10;;;;;;;27.69;52.60;101411.88;10413789;28;20041;-74
2022/06/22 07:55:41;;;;;;;0.10;0.10;;;;;;;27.04;52.24;101399.91;10420558;28;20060;-74
2022/06/22 08:00:44;;;;;;;0.00;0.00;;;;;;;26.02;53.16;101409.38;10422828;28;20038;-73
2022/06/22 08:05:48;;;;;;;0.10;0.10;;;;;;;25.60;57.25;101414.34;10420735;28;20138;-74
2022/06/22 08:11:14;;;;;;;0.10;0.10;;;;;;;25.14;58.08;101419.75;10423199;28;20049;-74
2022/06/22 08:16:21;;;;;;;0.00;0.00;;;;;;;24.50;57.33;101414.28;10422007;28;20248;-74
2022/06/22 08:21:23;;;;;;;0.10;0.10;;;;;;;24.48;57.46;101415.59;10416244;28;20120;-73
2022/06/22 08:26:31;;;;;;;0.10;0.10;;;;;;;24.18;57.75;101413.78;10422934;28;20095;-73
2022/06/22 08:31:38;;;;;;;0.00;0.00;;;;;;;23.52;60.35;101422.94;10422858;28;20498;-73
2022/06/22 08:36:46;;;;;;;0.00;0.00;;;;;;;23.58;61.40;101414.66;10421177;28;20106;-73
2022/06/22 08:41:55;;;;;;;0.00;0.00;;;;;;;24.34;61.31;101413.06;10421627;28;20091;-73
2022/06/22 08:47:01;;;;;;;0.00;0.00;;;;;;;24.36;62.30;101416.38;10420385;28;20033;-73
2022/06/22 08:52:34;;;;;;;0.00;0.00;;;;;;;24.27;61.08;101417.81;10418530;28;20025;-73
2022/06/22 08:57:49;;;;;;;0.10;0.10;;;;;;;23.89;60.63;101423.66;10417442;28;20121;-73
2022/06/22 09:03:11;;;;;;;0.00;0.00;;;;;;;23.37;62.32;101426.06;10418280;28;20033;-73
2022/06/22 09:08:30;;;;;;;0.10;0.10;;;;;;;22.85;65.90;101431.88;10415891;28;20273;-73
2022/06/22 09:13:55;;;;;;;0.03;0.03;;;;;;;22.96;64.98;101431.16;10417560;28;20044;-73
2022/06/22 09:19:14;;;;;;;0.10;0.10;;;;;;;23.09;67.08;101423.91;10411559;28;20091;-73
2022/06/22 09:24:33;;;;;;;0.00;0.00;;;;;;;23.87;63.24;101429.31;10410541;28;20057;-73
2022/06/22 09:29:58;;;;;;;0.00;0.00;;;;;;;23.95;60.07;101434.44;10418318;28;20041;-73
2022/06/22 09:35:16;;;;;;;0.00;0.00;;;;;;;23.76;61.89;101446.44;10416569;28;20037;-73
2022/06/22 09:40:30;;;;;;;0.00;0.00;;;;;;;24.04;64.14;101453.16;10418665;28;20049;-72
2022/06/22 09:45:33;;;;;;;0.08;0.08;;;;;;;24.09;60.46;101445.13;10417220;28;20029;-73
2022/06/22 09:51:04;;;;;;;0.00;0.00;;;;;;;24.32;62.83;101441.59;10411252;28;20100;-73
2022/06/22 09:56:22;;;;;;;0.03;0.03;;;;;;;24.47;59.46;101436.53;10416917;28;20057;-73
2022/06/22 10:01:38;;;;;;;0.00;0.00;;;;;;;24.50;59.44;101436.06;10416125;28;20120;-73
2022/06/22 10:06:51;;;;;;;0.00;0.00;;;;;;;24.84;60.78;101441.72;10416156;28;20037;-73
2022/06/22 10:11:51;;;;;;;;;;;;;;;24.88;59.45;101444.81;10417181;28;20112;-73
2022/06/22 10:17:00;;;;;;;0.00;0.00;;;;;;;24.28;60.76;101433.06;10416819;28;20379;-73
2022/06/22 10:22:06;;;;;;;0.00;0.00;;;;;;;23.93;61.29;101441.16;10409766;28;20026;-73
2022/06/22 10:27:25;;;;;;;0.08;0.08;;;;;;;24.11;59.22;101419.31;10416122;28;20076;-73
2022/06/22 10:32:38;;;;;;;0.00;0.00;;;;;;;23.60;62.12;101425.31;10416254;28;20029;-73
2022/06/22 10:38:00;;;;;;;0.00;0.00;;;;;;;23.49;62.25;101427.75;10414735;28;20125;-73
2022/06/22 10:49:13;;;;;;;0.00;0.00;;;;;;;23.45;64.44;101418.41;10416937;28;20041;-73
2022/06/22 10:54:57;;;;;;;0.08;0.08;;;;;;;23.22;63.02;101404.72;10406784;28;20533;-73
2022/06/22 11:00:05;;;;;;;0.10;0.10;;;;;;;23.41;59.58;101408.22;10416185;28;20041;-73
2022/06/22 11:05:24;;;;;;;0.00;0.00;;;;;;;23.95;62.92;101403.69;10415631;28;20037;-73
2022/06/22 11:11:16;;;;;;;0.00;0.00;;;;;;;23.83;61.35;101417.28;10417509;28;20484;-72
2022/06/22 11:16:19;;;;;;;0.08;0.08;;;;;;;23.95;58.24;101415.41;10417638;28;20179;-73
2022/06/22 11:21:31;;;;;;;0.00;0.00;;;;;;;23.69;58.61;101413.06;10440361;28;20033;-72
2022/06/22 11:31:56;;;;;;;0.00;0.00;;;;;;;23.73;57.34;101408.81;10376098;28;20038;-75
2022/06/22 11:37:08;;;;;;;0.00;0.00;;;;;;;24.03;56.72;101402.50;10375097;28;20345;-74
2022/06/22 11:42:31;;;;;;;0.00;0.00;;;;;;;24.02;56.96;101407.13;10375677;28;20040;-75
2022/06/22 11:47:58;;;;;;;0.00;0.00;;;;;;;23.28;55.95;101411.97;10374718;28;20476;-75
2022/06/22 11:53:23;;;;;;;0.10;0.10;;;;;;;23.12;56.06;101402.53;10374153;28;20073;-75
2022/06/22 11:58:39;;;;;;;0.00;0.00;;;;;;;23.09;58.99;101410.31;10372606;28;20121;-75
2022/06/22 12:03:45;;;;;;;0.00;0.00;;;;;;;23.24;58.34;101400.72;10374313;28;20029;-75
2022/06/22 12:08:51;;;;;;;0.00;0.00;;;;;;;23.06;55.49;101392.56;10374514;28;20042;-75
2022/06/22 12:19:42;;;;;;;0.00;0.00;;;;;;;23.32;58.74;101382.41;10373742;28;20037;-75
2022/06/22 12:25:02;;;;;;;0.00;0.00;;;;;;;23.85;57.56;101390.66;10370954;28;20038;-74
2022/06/22 12:30:19;;;;;;;0.00;0.00;;;;;;;23.78;54.90;101384.50;10373440;28;20040;-75
2022/06/22 12:35:51;;;;;;;0.10;0.10;;;;;;;23.74;56.34;101377.88;10372616;28;20120;-75
2022/06/22 12:41:00;;;;;;;0.08;0.08;;;;;;;23.82;55.66;101369.34;10357573;28;20045;-74
2022/06/22 12:46:17;;;;;;;0.10;0.10;;;;;;;23.45;54.31;101366.75;10372524;28;20021;-74
2022/06/22 12:51:28;;;;;;;0.05;0.05;;;;;;;23.02;55.96;101364.22;10372695;28;20108;-75
2022/06/22 12:56:53;;;;;;;0.00;0.00;;;;;;;22.93;59.55;101369.09;10371856;28;20054;-74
2022/06/22 13:01:54;;;;;;;0.00;0.00;;;;;;;23.09;58.95;101362.22;10372854;28;20026;-75
2022/06/22 13:06:59;;;;;;;0.00;0.00;;;;;;;23.19;56.71;101359.00;10371460;28;20112;-74
2022/06/22 13:12:09;;;;;;;0.00;0.00;;;;;;;22.93;58.26;101357.41;10371937;28;20168;-74
2022/06/22 13:17:30;;;;;;;0.00;0.00;;;;;;;22.87;60.18;101370.03;10371085;28;20608;-74
2022/06/22 13:22:35;;;;;;;0.00;0.00;;;;;;;22.69;58.34;101348.28;10371010;28;20412;-75
2022/06/22 13:27:45;;;;;;;0.00;0.00;;;;;;;22.81;58.14;101347.31;10370956;28;20044;-74
2022/06/22 13:33:06;;;;;;;0.10;0.10;;;;;;;22.98;56.12;101346.69;10370045;28;20095;-74
2022/06/22 13:38:28;;;;;;;0.00;0.00;;;;;;;22.98;58.66;101344.84;10368597;28;20544;-75
2022/06/22 13:43:28;;;;;;;0.00;0.00;;;;;;;23.05;58.90;101359.16;10370786;28;20693;-74
2022/06/22 13:48:49;;;;;;;0.00;0.00;;;;;;;22.83;55.92;101350.66;10370428;28;20030;-74
2022/06/22 13:54:10;;;;;;;0.10;0.10;;;;;;;22.75;56.55;101352.84;10369132;28;20396;-74
2022/06/22 13:59:51;;;;;;;0.10;0.10;;;;;;;22.60;56.36;101354.03;10370401;28;20061;-74
2022/06/22 14:05:15;;;;;;;0.00;0.00;;;;;;;22.98;54.39;101355.72;10348494;28;20029;-74
2022/06/22 14:10:37;;;;;;;0.10;0.10;;;;;;;23.08;55.12;101357.03;10369888;28;20096;-74
2022/06/22 14:15:46;;;;;;;0.10;0.10;;;;;;;23.02;50.52;101361.50;10369142;28;20038;-74
2022/06/22 14:21:01;;;;;;;0.00;0.00;;;;;;;22.92;51.57;101350.31;10374266;28;20095;-74
2022/06/22 14:26:20;;;;;;;0.00;0.00;;;;;;;22.70;49.93;101361.66;10409301;28;20523;-74
2022/06/22 14:31:32;;;;;;;0.10;0.10;;;;;;;22.62;50.14;101350.25;10410047;28;20048;-74
2022/06/22 14:36:38;;;;;;;0.00;0.00;;;;;;;22.66;49.96;101344.16;10409090;28;20040;-74
2022/06/22 14:41:44;;;;;;;0.10;0.10;;;;;;;22.86;51.41;101340.34;10409764;28;20061;-74
2022/06/22 14:46:53;;;;;;;0.00;0.00;;;;;;;22.83;52.02;101338.91;10408402;28;20036;-74
2022/06/22 14:52:08;;;;;;;0.00;0.00;;;;;;;22.80;52.56;101333.94;10379245;28;20493;-74
2022/06/22 14:57:21;;;;;;;0.00;0.00;;;;;;;22.72;54.56;101342.41;10366850;28;20072;-74
2022/06/22 15:03:03;;;;;;;0.00;0.00;;;;;;;22.50;52.12;101339.31;10368496;28;20029;-74
2022/06/22 15:08:12;;;;;;;;;;;;;;;22.64;54.57;101326.44;10367324;28;20467;-74
2022/06/22 15:13:31;;;;;;;0.00;0.00;;;;;;;22.77;55.47;101318.94;10368278;28;19921;-74
2022/06/22 15:18:33;;;;;;;0.00;0.00;;;;;;;22.73;55.43;101327.78;10367578;28;20045;-74
2022/06/22 15:24:00;;;;;;;0.00;0.00;;;;;;;22.63;56.41;101316.63;10366092;28;20061;-75
2022/06/22 15:29:26;;;;;;;0.00;0.00;;;;;;;22.78;53.73;101315.19;10367872;28;20045;-75
2022/06/22 15:35:15;;;;;;;0.00;0.00;;;;;;;22.73;55.37;101317.75;10366840;28;20038;-75
2022/06/22 15:40:25;;;;;;;0.00;0.00;;;;;;;22.66;57.76;101308.00;10329753;28;20045;-75
2022/06/22 15:45:31;;;;;;;0.00;0.00;;;;;;;22.66;59.34;101310.72;10369195;28;20022;-75
2022/06/22 15:50:41;;;;;;;0.00;0.00;;;;;;;22.56;56.98;101306.66;10368041;28;20041;-75
2022/06/22 15:56:01;;;;;;;0.00;0.00;;;;;;;22.59;57.25;101314.34;10366949;28;20033;-75
2022/06/22 16:01:09;;;;;;;0.00;0.00;;;;;;;22.45;58.77;101331.03;10373734;28;20121;-75
2022/06/22 16:06:16;;;;;;;0.00;0.00;;;;;;;22.41;62.06;101325.22;10374044;28;20057;-75
2022/06/22 16:17:15;;;;;;;0.00;0.00;;;;;;;22.22;61.94;101334.38;10374246;28;20057;-75
2022/06/22 16:23:00;;;;;;;0.00;0.00;;;;;;;22.32;63.98;101326.56;10373785;28;20489;-75
2022/06/22 16:28:07;;;;;;;0.00;0.00;;;;;;;22.29;61.39;101332.47;10371862;28;20485;-75
2022/06/22 16:33:11;;;;;;;0.00;0.00;;;;;;;22.29;64.34;101333.28;10373578;28;20088;-75
2022/06/22 16:38:24;;;;;;;0.00;0.00;;;;;;;22.22;64.52;101326.25;10371519;28;20041;-75
2022/06/22 16:43:40;;;;;;;0.03;0.03;;;;;;;22.07;63.45;101321.97;10373161;28;20061;-74
2022/06/22 16:48:40;;;;;;;0.00;0.00;;;;;;;21.89;66.20;101319.22;10372768;28;20029;-75
2022/06/22 16:53:51;;;;;;;0.00;0.00;;;;;;;21.58;68.00;101337.19;10371324;28;20088;-75
2022/06/22 16:58:59;;;;;;;0.00;0.00;;;;;;;21.47;71.31;101321.66;10372396;28;20042;-75
2022/06/22 17:04:15;;;;;;;0.10;0.10;;;;;;;21.32;69.39;101323.78;10372158;28;20041;-75
2022/06/22 17:09:25;;;;;;;0.00;0.00;;;;;;;21.17;70.20;101318.69;10371529;28;20038;-75
2022/06/22 17:14:29;;;;;;;0.03;0.03;;;;;;;21.04;70.30;101322.31;10371061;28;20116;-75
2022/06/22 17:19:46;;;;;;;0.00;0.00;;;;;;;20.96;69.43;101317.13;10371882;28;20033;-75
2022/06/22 17:31:05;;;;;;;0.00;0.00;;;;;;;20.47;75.25;101326.66;10289252;28;20062;-75
2022/06/22 17:36:05;;;;;;;;;;;;;;;20.37;77.62;101328.97;10290141;28;20049;-75
2022/06/22 17:41:12;;;;;;;0.00;0.00;;;;;;;20.25;80.16;101337.75;10290823;28;19910;-75
2022/06/22 17:46:18;;;;;;;0.10;0.10;;;;;;;20.15;78.57;101340.03;10289810;28;20513;-75
2022/06/22 17:51:32;;;;;;;0.10;0.10;;;;;;;20.07;80.76;101351.91;10289610;28;20026;-74
2022/06/22 17:56:40;;;;;;;0.10;0.10;;;;;;;19.95;83.44;101350.03;10289221;28;20043;-75
2022/06/22 18:01:55;;;;;;;0.10;0.10;;;;;;;19.81;86.35;101344.66;10289559;28;20114;-75
2022/06/22 18:07:00;;;;;;;0.13;0.13;;;;;;;19.72;87.11;101350.44;10287401;28;20027;-75
2022/06/22 18:12:06;;;;;;;0.10;0.10;;;;;;;19.60;87.79;101356.41;10289285;28;20030;-74
2022/06/22 18:17:15;;;;;;;0.00;0.00;;;;;;;19.48;88.61;101351.84;10288258;28;20122;-74
2022/06/22 18:22:20;;;;;;;0.10;0.10;;;;;;;19.21;91.58;101351.78;10287523;28;20520;-75
2022/06/22 18:27:29;;;;;;;0.10;0.10;;;;;;;19.13;93.79;101365.47;10286936;28;20525;-74
2022/06/22 18:32:39;;;;;;;0.10;0.10;;;;;;;19.00;92.75;101356.28;10286911;28;20050;-75
2022/06/22 18:38:16;;;;;;;0.10;0.10;;;;;;;18.86;93.62;101364.53;10286513;28;20034;-74
2022/06/22 18:43:34;;;;;;;0.00;0.00;;;;;;;18.73;95.04;101360.75;10279767;28;20035;-74
2022/06/22 18:48:45;;;;;;;0.00;0.00;;;;;;;18.60;95.50;101378.69;10285581;28;20033;-74
2022/06/22 18:53:59;;;;;;;0.08;0.08;;;;;;;18.47;95.18;101380.28;10292726;28;20031;-75
2022/06/22 18:59:05;;;;;;;0.10;0.10;;;;;;;18.32;96.47;101385.78;10286822;28;20505;-74
2022/06/22 19:04:09;;;;;;;0.00;0.00;;;;;;;18.19;98.06;101387.53;10285626;28;20035;-74
2022/06/22 19:09:12;;;;;;;0.10;0.10;;;;;;;18.02;99.03;101385.13;10286342;28;20545;-74
2022/06/22 19:14:13;;;;;;;0.10;0.10;;;;;;;17.85;99.68;101381.84;10285320;28;20027;-74
2022/06/22 19:19:36;;;;;;;0.10;0.10;;;;;;;17.72;100.00;101389.81;10285953;28;20031;-74
2022/06/22 19:25:01;;;;;;;0.10;0.10;;;;;;;17.55;100.00;101389.22;10283655;28;20398;-74
2022/06/22 19:30:07;;;;;;;0.10;0.10;;;;;;;17.39;100.00;101394.81;10285929;28;20361;-74
2022/06/22 19:35:23;;;;;;;0.10;0.10;;;;;;;17.24;100.00;101394.03;10290309;28;20545;-74
2022/06/22 19:40:38;;;;;;;0.10;0.10;;;;;;;17.09;100.00;101399.44;10293687;28;20035;-74
2022/06/22 19:46:03;;;;;;;0.10;0.10;;;;;;;16.92;100.00;101401.50;10307095;28;20548;-74
2022/06/22 19:51:13;;;;;;;0.10;0.10;;;;;;;16.75;100.00;101396.31;10291558;28;20035;-74
2022/06/22 19:56:28;;;;;;;0.10;0.10;;;;;;;16.57;100.00;101397.69;10292081;28;20039;-74
2022/06/22 20:01:35;;;;;;;0.10;0.10;;;;;;;16.43;100.00;101415.47;10292632;28;20585;-74
2022/06/22 20:07:11;;;;;;;0.10;0.10;;;;;;;16.28;100.00;101405.50;10274954;28;20460;-74
2022/06/22 20:12:16;;;;;;;0.10;0.10;;;;;;;16.12;100.00;101403.00;10290267;28;20434;-74
2022/06/22 20:17:32;;;;;;;0.10;0.10;;;;;;;16.01;100.00;101404.25;10293160;28;20855;-73
2022/06/22 20:22:45;;;;;;;0.10;0.10;;;;;;;15.89;100.00;101399.50;10290041;28;20035;-74
2022/06/22 20:28:05;;;;;;;0.10;0.10;;;;;;;15.71;100.00;101416.75;10290681;28;20053;-74
2022/06/22 20:33:20;;;;;;;0.10;0.10;;;;;;;15.61;100.00;101419.63;10292219;28;20035;-74
2022/06/22 20:38:24;;;;;;;0.10;0.10;;;;;;;15.49;100.00;101417.53;10290928;28;20037;-74
2022/06/22 20:43:38;;;;;;;0.10;0.10;;;;;;;15.31;100.00;101417.81;10291085;28;20034;-74
2022/06/22 20:49:12;;;;;;;0.10;0.10;;;;;;;15.17;100.00;101417.50;10290745;28;20176;-75
2022/06/22 20:54:21;;;;;;;0.10;0.10;;;;;;;15.06;100.00;101422.44;10289070;28;20311;-74
2022/06/22 20:59:29;;;;;;;0.10;0.10;;;;;;;15.01;100.00;101435.53;10289848;28;20026;-74
2022/06/22 21:04:49;;;;;;;0.10;0.10;;;;;;;14.88;100.00;101436.09;10289615;28;20038;-73
2022/06/22 21:09:55;;;;;;;0.10;0.10;;;;;;;14.74;100.00;101447.50;10284242;28;20030;-73
2022/06/22 21:15:08;;;;;;;0.20;0.20;;;;;;;14.63;100.00;101454.06;10271309;28;20474;-73
2022/06/22 21:20:17;;;;;;;0.10;0.10;;;;;;;14.50;100.00;101447.34;10305220;28;20560;-73
2022/06/22 21:25:27;;;;;;;0.10;0.10;;;;;;;14.28;100.00;101456.06;10288413;28;20042;-73
2022/06/22 21:30:33;;;;;;;0.10;0.10;;;;;;;14.13;100.00;101466.63;10289722;28;20042;-73
2022/06/22 21:35:47;;;;;;;0.10;0.10;;;;;;;13.96;100.00;101463.13;10287389;28;20109;-73
2022/06/22 21:41:09;;;;;;;0.10;0.10;;;;;;;13.73;100.00;101478.97;10285831;28;20023;-73
2022/06/22 21:46:40;;;;;;;0.10;0.10;;;;;;;13.49;100.00;101465.50;10287499;28;20062;-73
2022/06/22 21:51:52;;;;;;;0.10;0.10;;;;;;;13.28;100.00;101457.94;10288352;28;20067;-73
2022/06/22 21:57:05;;;;;;;0.05;0.05;;;;;;;13.20;100.00;101460.53;10286381;28;20046;-73
2022/06/22 22:02:21;;;;;;;0.10;0.10;;;;;;;13.11;100.00;101460.50;10287753;28;20084;-73
2022/06/22 22:07:47;;;;;;;0.10;0.10;;;;;;;13.06;100.00;101457.47;10285665;28;20031;-73
2022/06/22 22:12:53;;;;;;;0.10;0.10;;;;;;;13.01;100.00;101461.63;10287516;28;20118;-73
2022/06/22 22:17:58;;;;;;;0.10;0.10;;;;;;;12.97;100.00;101455.75;10286001;28;20038;-73
2022/06/22 22:23:11;;;;;;;0.03;0.03;;;;;;;12.95;100.00;101459.59;10287165;28;20023;-73
2022/06/22 22:28:19;;;;;;;0.10;0.10;;;;;;;12.96;100.00;101458.59;10286039;28;20047;-73
2022/06/22 22:33:19;;;;;;;0.10;0.10;;;;;;;12.91;100.00;101457.25;10287108;28;20110;-73
2022/06/22 22:38:31;;;;;;;0.10;0.10;;;;;;;12.80;100.00;101457.50;10285898;28;20498;-73
2022/06/22 22:43:52;;;;;;;0.10;0.10;;;;;;;12.63;100.00;101456.56;10287141;28;20186;-73
2022/06/22 22:49:14;;;;;;;0.00;0.00;;;;;;;12.42;100.00;101448.03;10286545;28;20045;-73
2022/06/22 22:54:20;;;;;;;0.00;0.00;;;;;;;12.23;100.00;101457.94;10285462;28;20101;-73
2022/06/22 22:59:20;;;;;;;0.10;0.10;;;;;;;12.14;100.00;101461.53;10286302;28;20035;-73
2022/06/22 23:04:33;;;;;;;0.10;0.10;;;;;;;12.11;100.00;101453.84;10285692;28;20027;-73
2022/06/22 23:09:33;;;;;;;0.10;0.10;;;;;;;12.04;100.00;101458.09;10290517;28;20035;-73
2022/06/22 23:14:34;;;;;;;0.10;0.10;;;;;;;11.93;100.00;101458.34;10293824;28;20386;-73
2022/06/22 23:19:39;;;;;;;0.10;0.10;;;;;;;11.83;100.00;101455.69;10294374;28;20430;-73
2022/06/22 23:24:40;;;;;;;0.00;0.00;;;;;;;11.73;100.00;101465.63;10293056;28;20031;-73
2022/06/22 23:29:41;;;;;;;0.00;0.00;;;;;;;11.67;100.00;101472.41;10355042;23;20041;-74
2022/06/22 23:34:43;;;;;;;0.00;0.00;;;;;;;11.74;100.00;101467.28;10372577;28;20030;-73
2022/06/22 23:39:43;;;;;;;0.10;0.10;;;;;;;11.78;100.00;101460.69;10373743;28;20033;-74
2022/06/22 23:44:45;;;;;;;0.00;0.00;;;;;;;11.72;100.00;101464.78;10373489;28;20026;-74
2022/06/22 23:49:47;;;;;;;0.00;0.00;;;;;;;11.67;100.00;101461.72;10372541;28;20656;-73
2022/06/22 23:54:50;;;;;;;0.00;0.00;;;;;;;11.47;100.00;101461.00;10374119;28;20092;-74
2022/06/22 23:59:51;;;;;;;0.10;0.10;;;;;;;11.31;100.00;101474.13;10374024;28;20034;-74
